MUCU/SCU METAR and TAF weather

Enter ICAO airport designator
Station Type Date Time Source
MUCU METAR 2024/06/16 08:50 UTC NOAA

MUCU 160850Z 34003KT 9000 FEW020 26/25 Q1013


Station Type Date Time Source
MUCU Decoded METAR 2024/06/16 08:50 UTC NOAA

Santiago De Cuba, Oriente, Cuba (MUCU) 19-58N 075-51W 55M
Jun 16, 2024 - 04:50 AM EDT / 2024.06.16 0850 UTC
Wind: from the NNW (340 degrees) at 3 MPH (3 KT):0
Visibility: 5 mile(s):0
Sky conditions: mostly clear
Temperature: 78 F (26 C)
Dew Point: 77 F (25 C)
Relative Humidity: 94%
Pressure (altimeter): 29.91 in. Hg (1013 hPa)
ob: MUCU 160850Z 34003KT 9000 FEW020 26/25 Q1013
cycle: 9

Station Type Date Time Source
MUCU TAF 2024/06/16 06:03 UTC NOAA